createdAt,value
2019-04-23T00:00:32.865Z,18.20
2019-04-23T00:02:53.499Z,18.50
2019-04-23T00:05:39.410Z,18.60
2019-04-23T00:10:25.320Z,18.70
2019-04-23T00:15:17.466Z,19.10
2019-04-23T00:18:03.119Z,19.00
2019-04-23T00:20:20.126Z,19.20
2019-04-23T00:23:05.084Z,19.30
2019-04-23T00:26:02.664Z,19.60
2019-04-23T00:28:29.833Z,19.60
2019-04-23T00:30:55.277Z,19.80
2019-04-23T00:33:25.063Z,19.80
2019-04-23T00:35:56.585Z,20.00
2019-04-23T00:41:01.218Z,20.40
2019-04-23T00:43:27.120Z,20.30
2019-04-23T00:50:56.224Z,20.40
2019-04-23T00:53:29.670Z,20.30
2019-04-23T01:01:00.486Z,20.30
2019-04-23T01:03:25.584Z,20.70
2019-04-23T01:06:05.178Z,20.90
2019-04-23T01:08:33.232Z,21.10
2019-04-23T01:11:08.223Z,21.10
2019-04-23T01:13:49.476Z,21.20
2019-04-23T01:18:51.606Z,21.90
2019-04-23T01:21:03.321Z,21.50
2019-04-23T01:23:57.531Z,21.90
2019-04-23T01:26:42.129Z,21.90
2019-04-23T01:29:35.853Z,22.00
2019-04-23T01:31:47.945Z,22.00
2019-04-23T01:34:20.048Z,22.20
2019-04-23T01:36:44.728Z,22.20
2019-04-23T01:39:16.399Z,22.10
2019-04-23T01:41:50.695Z,22.40
2019-04-23T01:44:22.466Z,22.50
2019-04-23T01:46:49.491Z,22.50
2019-04-23T01:49:27.115Z,22.90
2019-04-23T01:51:55.724Z,22.80
2019-04-23T01:54:22.834Z,23.10
2019-04-23T01:56:39.994Z,23.10
2019-04-23T01:59:18.280Z,23.10
2019-04-23T02:06:45.088Z,23.60
2019-04-23T02:09:18.461Z,23.70
2019-04-23T02:12:07.591Z,23.70
2019-04-23T02:14:16.291Z,23.90
2019-04-23T02:16:44.112Z,24.00
2019-04-23T02:19:17.004Z,24.10
2019-04-23T02:24:24.710Z,24.30
2019-04-23T02:26:48.569Z,24.40
2019-04-23T02:29:36.643Z,24.50
2019-04-23T02:32:03.471Z,24.60
2019-04-23T02:37:00.565Z,24.80
2019-04-23T02:39:40.097Z,24.90
2019-04-23T02:42:25.143Z,25.10
2019-04-23T02:44:24.333Z,25.00
2019-04-23T02:47:12.568Z,25.00
2019-04-23T02:49:49.608Z,25.10
2019-04-23T02:52:11.002Z,25.40
2019-04-23T02:56:59.142Z,26.00
2019-04-23T03:00:12.389Z,25.80
2019-04-23T03:04:50.308Z,25.80
2019-04-23T03:07:26.775Z,25.80
2019-04-23T03:14:59.097Z,26.00
2019-04-23T03:17:26.412Z,26.30
2019-04-23T03:20:07.940Z,26.60
2019-04-23T03:22:59.016Z,26.80
2019-04-23T03:25:29.861Z,26.90
2019-04-23T03:38:21.295Z,27.50
2019-04-23T03:40:45.615Z,27.50
2019-04-23T03:43:14.563Z,27.50
2019-04-23T03:48:26.251Z,27.60
2019-04-23T03:50:53.427Z,28.40
2019-04-23T03:53:24.415Z,28.30
2019-04-23T03:58:18.465Z,28.30
2019-04-23T04:13:24.439Z,29.40
2019-04-23T04:15:57.065Z,29.20
2019-04-23T04:18:33.010Z,29.50
2019-04-23T04:23:28.075Z,29.80
2019-04-23T04:28:28.880Z,30.20
2019-04-23T04:30:49.171Z,30.20
2019-04-23T04:33:46.968Z,30.10
2019-04-23T04:36:13.166Z,30.40
2019-04-23T04:38:36.458Z,30.80
2019-04-23T04:41:05.606Z,30.80
2019-04-23T04:46:09.990Z,31.20
2019-04-23T04:48:28.105Z,31.50
2019-04-23T04:51:00.331Z,31.70
2019-04-23T04:56:07.713Z,31.70
2019-04-23T05:03:26.638Z,32.00
2019-04-23T05:08:28.784Z,32.80
2019-04-23T05:11:04.257Z,32.50
2019-04-23T05:15:51.440Z,33.10
2019-04-23T05:18:28.743Z,32.70
2019-04-23T05:21:05.677Z,32.70
2019-04-23T05:23:42.772Z,33.80
2019-04-23T05:26:19.269Z,33.20
2019-04-23T05:33:49.472Z,34.10
2019-04-23T05:38:54.233Z,33.70
2019-04-23T05:41:29.834Z,33.90
2019-04-23T05:43:46.767Z,34.90
2019-04-23T05:46:26.434Z,34.30
2019-04-23T05:51:26.735Z,33.80
2019-04-23T05:53:45.182Z,34.50
2019-04-23T05:56:21.365Z,35.00
2019-04-23T05:58:54.520Z,34.20
2019-04-23T06:01:53.081Z,35.10
2019-04-23T06:04:09.235Z,35.20
2019-04-23T06:06:37.818Z,35.10
2019-04-23T06:09:02.936Z,34.70
2019-04-23T06:11:37.024Z,34.70
2019-04-23T06:19:01.594Z,35.70
2019-04-23T06:21:34.682Z,35.20
2019-04-23T06:29:08.180Z,35.50
2019-04-23T06:31:34.222Z,35.40
2019-04-23T06:34:04.203Z,35.40
2019-04-23T06:36:32.682Z,35.20
2019-04-23T06:38:57.106Z,34.80
2019-04-23T06:41:36.194Z,35.70
2019-04-23T06:44:12.954Z,34.70
2019-04-23T06:46:48.345Z,35.00
2019-04-23T06:49:20.648Z,34.20
2019-04-23T06:51:52.120Z,34.40
2019-04-23T06:54:12.271Z,33.90
2019-04-23T06:56:54.316Z,33.80
2019-04-23T06:59:12.049Z,34.50
2019-04-23T07:01:50.511Z,34.20
2019-04-23T07:06:47.187Z,34.10
2019-04-23T07:11:40.258Z,33.90
2019-04-23T07:14:02.641Z,34.50
2019-04-23T07:16:41.442Z,34.80
2019-04-23T07:19:16.543Z,34.20
2019-04-23T07:21:44.658Z,34.20
2019-04-23T07:24:08.583Z,33.20
2019-04-23T07:26:48.896Z,33.10
2019-04-23T07:29:15.809Z,33.30
2019-04-23T07:34:26.373Z,33.20
2019-04-23T07:36:40.672Z,33.70
2019-04-23T07:39:33.397Z,35.20
2019-04-23T07:42:20.229Z,34.90
2019-04-23T07:45:12.493Z,34.00
2019-04-23T07:47:54.387Z,34.60
2019-04-23T07:50:22.900Z,34.80
2019-04-23T07:52:51.352Z,34.20
2019-04-23T07:55:31.572Z,34.10
2019-04-23T07:57:52.148Z,33.40
2019-04-23T08:00:18.194Z,32.40
2019-04-23T08:02:45.736Z,34.30
2019-04-23T08:07:53.001Z,34.50
2019-04-23T08:10:17.031Z,33.90
2019-04-23T08:12:46.845Z,32.70
2019-04-23T08:15:20.167Z,32.80
2019-04-23T08:17:42.800Z,33.90
2019-04-23T08:20:26.840Z,33.60
2019-04-23T08:22:45.451Z,33.40
2019-04-23T08:25:56.277Z,33.40
2019-04-23T08:28:25.842Z,32.60
2019-04-23T08:30:46.558Z,33.20
2019-04-23T08:33:19.159Z,33.30
2019-04-23T08:35:50.966Z,32.90
2019-04-23T08:38:25.887Z,33.20
2019-04-23T08:40:57.515Z,33.90
2019-04-23T08:43:36.075Z,32.60
2019-04-23T08:46:14.020Z,32.70
2019-04-23T08:48:49.683Z,32.70
2019-04-23T08:51:28.258Z,33.60
2019-04-23T08:53:53.286Z,30.50
2019-04-23T08:56:15.377Z,31.90
2019-04-23T08:59:11.016Z,33.20
2019-04-23T09:01:20.072Z,33.20
2019-04-23T09:04:00.896Z,32.10
2019-04-23T09:06:15.762Z,32.40
2019-04-23T09:08:42.335Z,32.90
2019-04-23T09:12:30.117Z,32.20
2019-04-23T09:16:28.633Z,34.60
2019-04-23T09:18:57.769Z,31.40
2019-04-23T09:21:25.656Z,30.30
2019-04-23T09:23:51.678Z,29.30
2019-04-23T09:26:10.943Z,28.70
2019-04-23T09:31:56.955Z,30.00
2019-04-23T09:34:16.648Z,30.00
2019-04-23T09:37:10.319Z,29.80
2019-04-23T09:39:44.521Z,30.30
2019-04-23T09:42:37.968Z,30.20
2019-04-23T09:45:26.913Z,29.80
2019-04-23T09:50:33.430Z,30.40
2019-04-23T09:53:13.038Z,30.00
2019-04-23T09:55:35.800Z,29.60
2019-04-23T09:58:05.999Z,29.30
2019-04-23T10:00:38.041Z,30.40
2019-04-23T10:03:01.185Z,29.40
2019-04-23T10:05:28.120Z,30.80
2019-04-23T10:07:54.499Z,30.10
2019-04-23T10:10:14.389Z,29.40
2019-04-23T10:12:44.077Z,29.70
2019-04-23T10:15:20.493Z,30.10
2019-04-23T10:17:44.505Z,29.20
2019-04-23T10:20:13.017Z,28.80
2019-04-23T10:22:42.213Z,28.20
2019-04-23T10:25:11.133Z,28.70
2019-04-23T10:27:41.193Z,29.70
2019-04-23T10:30:12.345Z,29.30
2019-04-23T10:32:40.675Z,29.50
2019-04-23T10:35:20.434Z,29.40
2019-04-23T10:37:48.934Z,28.60
2019-04-23T10:40:17.601Z,28.90
2019-04-23T10:42:44.612Z,28.20
2019-04-23T10:45:47.875Z,28.70
2019-04-23T10:49:18.076Z,28.70
2019-04-23T10:54:16.087Z,28.60
2019-04-23T10:56:40.787Z,29.10
2019-04-23T10:59:16.557Z,29.10
2019-04-23T11:01:45.004Z,29.50
2019-04-23T11:06:50.007Z,29.40
2019-04-23T11:12:14.609Z,29.40
2019-04-23T11:14:34.082Z,28.90
2019-04-23T11:17:26.006Z,29.30
2019-04-23T11:19:43.669Z,29.20
2019-04-23T11:22:19.797Z,28.20
2019-04-23T11:24:48.901Z,28.50
2019-04-23T11:27:09.983Z,28.40
2019-04-23T11:29:44.374Z,29.60
2019-04-23T11:32:30.649Z,29.00
2019-04-23T11:35:06.674Z,29.40
2019-04-23T11:37:29.954Z,29.10
2019-04-23T11:39:44.180Z,28.80
2019-04-23T11:44:49.526Z,28.80
2019-04-23T11:48:07.567Z,28.40
2019-04-23T11:52:30.788Z,27.80
2019-04-23T11:54:55.103Z,27.60
2019-04-23T12:02:50.710Z,27.90
2019-04-23T12:05:50.606Z,28.20
2019-04-23T12:08:51.044Z,28.50
2019-04-23T12:14:22.038Z,27.20
2019-04-23T12:17:08.172Z,27.90
2019-04-23T12:22:01.553Z,27.40
2019-04-23T12:27:01.102Z,28.60
2019-04-23T12:29:33.216Z,27.70
2019-04-23T12:32:40.569Z,27.70
2019-04-23T12:34:55.586Z,27.70
2019-04-23T12:37:32.778Z,28.00
2019-04-23T12:40:00.152Z,27.20
2019-04-23T12:42:41.322Z,27.80
2019-04-23T12:44:55.114Z,26.50
2019-04-23T12:47:38.198Z,27.10
2019-04-23T12:52:25.488Z,26.40
2019-04-23T12:57:29.779Z,27.40
2019-04-23T12:59:49.865Z,27.90
2019-04-23T13:02:33.049Z,27.10
2019-04-23T13:04:54.440Z,26.80
2019-04-23T13:07:26.056Z,26.90
2019-04-23T13:10:05.319Z,26.60
2019-04-23T13:17:39.621Z,27.50
2019-04-23T13:22:39.899Z,26.70
2019-04-23T13:25:10.132Z,26.80
2019-04-23T13:27:51.045Z,26.60
2019-04-23T13:30:17.086Z,25.80
2019-04-23T13:32:48.794Z,25.80
2019-04-23T13:35:36.153Z,26.00
2019-04-23T13:38:02.074Z,26.20
2019-04-23T13:40:21.340Z,26.40
2019-04-23T13:42:45.088Z,26.50
2019-04-23T13:45:36.400Z,27.00
2019-04-23T13:53:07.277Z,26.80
2019-04-23T13:55:30.315Z,25.90
2019-04-23T14:00:28.674Z,26.50
2019-04-23T14:02:49.221Z,26.40
2019-04-23T14:05:33.319Z,26.90
2019-04-23T14:15:46.251Z,26.40
2019-04-23T14:18:19.274Z,26.20
2019-04-23T14:25:51.747Z,27.00
2019-04-23T14:28:21.612Z,26.70
2019-04-23T14:30:51.013Z,26.40
2019-04-23T14:33:17.499Z,26.50
2019-04-23T14:35:49.733Z,26.40
2019-04-23T14:43:18.347Z,26.80
2019-04-23T14:48:23.619Z,26.40
2019-04-23T14:51:11.367Z,26.50
2019-04-23T14:53:33.327Z,26.60
2019-04-23T14:56:00.574Z,26.80
2019-04-23T14:58:42.859Z,26.80
2019-04-23T15:03:40.324Z,27.50
2019-04-23T15:11:20.566Z,27.40
2019-04-23T15:13:44.573Z,27.00
2019-04-23T15:16:31.650Z,27.90
2019-04-23T15:19:34.102Z,27.80
2019-04-23T15:22:00.591Z,28.30
2019-04-23T15:24:30.890Z,27.60
2019-04-23T15:28:58.572Z,28.10
2019-04-23T15:31:55.728Z,27.50
2019-04-23T15:34:20.358Z,28.40
2019-04-23T15:37:15.589Z,28.10
2019-04-23T15:39:31.083Z,29.00
2019-04-23T15:44:26.539Z,27.90
2019-04-23T15:46:56.598Z,28.10
2019-04-23T15:51:52.058Z,27.90
2019-04-23T15:56:55.097Z,28.10
2019-04-23T15:59:36.464Z,28.10
2019-04-23T16:01:41.312Z,28.90
2019-04-23T16:04:03.424Z,28.40
2019-04-23T16:06:36.889Z,28.90
2019-04-23T16:09:26.044Z,28.50
2019-04-23T16:12:00.041Z,28.50
2019-04-23T16:14:49.706Z,28.70
2019-04-23T16:17:17.412Z,29.00
2019-04-23T16:20:06.412Z,29.10
2019-04-23T16:22:24.849Z,28.90
2019-04-23T16:25:00.917Z,28.90
2019-04-23T16:27:21.542Z,29.10
2019-04-23T16:30:15.956Z,29.00
2019-04-23T16:32:57.686Z,29.20
2019-04-23T16:37:59.005Z,29.50
2019-04-23T16:40:28.338Z,29.40
2019-04-23T16:43:04.672Z,29.40
2019-04-23T16:48:09.374Z,29.50
2019-04-23T16:50:41.670Z,29.40
2019-04-23T16:53:09.866Z,29.80
2019-04-23T16:55:37.709Z,29.80
2019-04-23T16:58:14.277Z,30.00
2019-04-23T17:08:36.102Z,30.00
2019-04-23T17:11:00.089Z,29.30
2019-04-23T17:13:20.155Z,29.40
2019-04-23T17:18:24.568Z,29.30
2019-04-23T17:20:58.290Z,29.20
2019-04-23T17:23:39.256Z,29.00
2019-04-23T17:26:06.627Z,29.30
2019-04-23T17:28:27.765Z,29.30
2019-04-23T17:33:43.506Z,29.20
2019-04-23T17:36:38.529Z,30.00
2019-04-23T17:39:27.034Z,29.60
2019-04-23T17:42:19.413Z,29.60
2019-04-23T17:44:57.168Z,29.80
2019-04-23T17:49:55.607Z,29.10
2019-04-23T17:52:20.345Z,29.90
2019-04-23T17:54:53.469Z,28.60
2019-04-23T17:57:26.019Z,29.00
2019-04-23T18:00:04.726Z,29.60
2019-04-23T18:02:51.726Z,28.90
2019-04-23T18:05:02.879Z,28.70
2019-04-23T18:15:13.191Z,28.30
2019-04-23T18:17:52.541Z,31.40
2019-04-23T18:20:49.363Z,33.70
2019-04-23T18:23:09.615Z,37.30
2019-04-23T18:25:51.572Z,40.00
2019-04-23T18:28:22.605Z,42.60
2019-04-23T18:31:14.224Z,41.80
2019-04-23T18:36:33.628Z,45.20
2019-04-23T18:39:06.805Z,47.70
2019-04-23T18:41:47.542Z,47.90
2019-04-23T18:44:13.953Z,48.90
2019-04-23T18:46:43.673Z,51.40
2019-04-23T18:49:09.477Z,53.00
2019-04-23T18:52:03.210Z,52.00
2019-04-23T18:54:14.864Z,53.00
2019-04-23T18:57:09.979Z,47.90
2019-04-23T18:59:38.943Z,49.40
2019-04-23T19:02:39.426Z,46.40
2019-04-23T19:05:08.724Z,43.30
2019-04-23T19:10:45.862Z,38.20
2019-04-23T19:13:24.796Z,35.70
2019-04-23T19:16:01.704Z,34.40
2019-04-23T19:18:31.969Z,33.70
2019-04-23T19:21:08.014Z,34.30
2019-04-23T19:23:31.845Z,32.50
2019-04-23T19:25:49.885Z,32.60
2019-04-23T19:34:17.882Z,31.50
2019-04-23T19:36:47.602Z,31.60
2019-04-23T19:39:11.849Z,31.70
2019-04-23T19:41:49.623Z,31.30
2019-04-23T19:46:49.164Z,31.20
2019-04-23T19:51:42.215Z,31.20
2019-04-23T19:54:20.157Z,31.30
2019-04-23T19:56:45.081Z,31.60
2019-04-23T19:59:02.017Z,32.10
2019-04-23T20:01:38.491Z,31.70
2019-04-23T20:04:05.595Z,31.40
2019-04-23T20:11:50.233Z,31.70
2019-04-23T20:14:24.079Z,31.90
2019-04-23T20:16:59.779Z,31.80
2019-04-23T20:19:19.267Z,31.70
2019-04-23T20:21:51.071Z,31.70
2019-04-23T20:26:51.571Z,32.00
2019-04-23T20:30:02.799Z,32.10
2019-04-23T20:35:06.695Z,32.20
2019-04-23T20:37:59.524Z,32.60
2019-04-23T20:45:02.617Z,33.00
2019-04-23T20:50:09.574Z,32.80
2019-04-23T20:52:22.494Z,32.80
2019-04-23T20:55:02.405Z,32.80
2019-04-23T20:57:45.537Z,32.80
2019-04-23T21:00:23.453Z,32.60
2019-04-23T21:05:43.198Z,32.60
2019-04-23T21:15:38.845Z,33.00
2019-04-23T21:20:37.892Z,33.10
2019-04-23T21:23:11.214Z,33.10
2019-04-23T21:25:44.674Z,33.60
2019-04-23T21:28:18.027Z,33.40
2019-04-23T21:36:44.513Z,33.90
2019-04-23T21:39:29.220Z,34.10
2019-04-23T21:42:06.299Z,34.00
2019-04-23T21:44:27.049Z,34.20
2019-04-23T21:49:41.256Z,34.50
2019-04-23T21:52:05.064Z,35.00
2019-04-23T21:54:30.729Z,34.80
2019-04-23T21:57:19.871Z,34.80
2019-04-23T21:59:27.526Z,34.90
2019-04-23T22:01:58.816Z,34.80
2019-04-23T22:07:05.069Z,34.80
2019-04-23T22:14:42.043Z,35.20
2019-04-23T22:17:09.545Z,35.20
2019-04-23T22:19:40.622Z,35.20
2019-04-23T22:22:01.149Z,35.20
2019-04-23T22:24:43.152Z,35.00
2019-04-23T22:27:03.484Z,35.30
2019-04-23T22:29:51.964Z,35.50
2019-04-23T22:32:15.548Z,35.70
2019-04-23T22:37:15.984Z,35.40
2019-04-23T22:42:15.041Z,35.80
2019-04-23T22:44:50.722Z,35.80
2019-04-23T22:47:25.155Z,36.10
2019-04-23T22:49:53.120Z,36.60
2019-04-23T22:54:57.287Z,36.70
2019-04-23T22:57:09.263Z,37.70
2019-04-23T23:02:54.437Z,37.60
2019-04-23T23:05:19.325Z,38.20
2019-04-23T23:10:14.108Z,38.30
2019-04-23T23:15:26.574Z,39.00
2019-04-23T23:17:52.633Z,39.20
2019-04-23T23:22:51.461Z,39.80
2019-04-23T23:27:53.725Z,39.80
2019-04-23T23:30:13.676Z,40.10
2019-04-23T23:32:51.788Z,40.40
2019-04-23T23:37:48.117Z,40.00
2019-04-23T23:40:21.586Z,40.30
2019-04-23T23:42:57.684Z,40.60
2019-04-23T23:47:44.797Z,41.40
2019-04-23T23:50:34.951Z,41.50
2019-04-23T23:55:15.755Z,41.40
2019-04-23T23:57:50.949Z,41.30
